createdAt,value
2019-05-03T00:00:13.692Z,80.90
2019-05-03T00:03:01.755Z,81.10
2019-05-03T00:05:41.772Z,81.30
2019-05-03T00:08:12.673Z,81.50
2019-05-03T00:10:42.700Z,82.00
2019-05-03T00:13:14.385Z,83.00
2019-05-03T00:15:54.838Z,83.10
2019-05-03T00:18:24.935Z,83.80
2019-05-03T00:20:54.864Z,83.70
2019-05-03T00:23:24.739Z,83.60
2019-05-03T00:25:54.603Z,83.70
2019-05-03T00:28:24.620Z,84.20
2019-05-03T00:30:54.574Z,84.50
2019-05-03T00:33:24.869Z,84.10
2019-05-03T00:36:13.134Z,84.30
2019-05-03T00:38:43.065Z,84.50
2019-05-03T00:41:13.080Z,84.50
2019-05-03T00:43:43.022Z,85.20
2019-05-03T00:46:14.059Z,86.10
2019-05-03T00:48:46.617Z,86.00
2019-05-03T00:51:17.453Z,85.70
2019-05-03T00:53:48.829Z,86.00
2019-05-03T00:56:18.760Z,85.70
2019-05-03T00:58:53.215Z,85.40
2019-05-03T01:01:23.233Z,86.90
2019-05-03T01:03:53.113Z,86.40
2019-05-03T01:06:24.251Z,87.00
2019-05-03T01:08:54.271Z,86.60
2019-05-03T01:11:24.144Z,86.40
2019-05-03T01:13:54.017Z,87.20
2019-05-03T01:16:25.519Z,86.50
2019-05-03T01:18:55.430Z,86.80
2019-05-03T01:21:25.301Z,86.70
2019-05-03T01:23:55.160Z,87.00
2019-05-03T01:26:25.045Z,87.00
2019-05-03T01:28:54.896Z,87.70
2019-05-03T01:31:24.853Z,87.30
2019-05-03T01:33:54.775Z,87.70
2019-05-03T01:36:24.644Z,87.70
2019-05-03T01:38:54.511Z,87.00
2019-05-03T01:41:24.390Z,87.70
2019-05-03T01:43:54.326Z,87.90
2019-05-03T01:46:24.264Z,87.90
2019-05-03T01:48:58.613Z,88.80
2019-05-03T01:51:45.159Z,88.40
2019-05-03T01:54:15.045Z,89.30
2019-05-03T01:56:56.001Z,88.80
2019-05-03T01:59:16.589Z,88.60
2019-05-03T02:01:54.224Z,88.80
2019-05-03T02:04:25.731Z,89.20
2019-05-03T02:06:56.747Z,89.20
2019-05-03T02:09:26.688Z,89.40
2019-05-03T02:11:56.556Z,89.30
2019-05-03T02:14:26.426Z,90.10
2019-05-03T02:16:57.939Z,90.00
2019-05-03T02:19:27.864Z,90.00
2019-05-03T02:21:57.807Z,90.00
2019-05-03T02:24:27.680Z,89.40
2019-05-03T02:26:57.544Z,89.20
2019-05-03T02:29:27.472Z,89.40
2019-05-03T02:31:57.424Z,89.40
2019-05-03T02:34:27.348Z,89.20
2019-05-03T02:36:57.313Z,89.40
2019-05-03T02:39:27.191Z,89.00
2019-05-03T02:42:02.929Z,88.90
2019-05-03T02:44:28.771Z,88.90
2019-05-03T02:47:18.342Z,88.90
2019-05-03T02:49:49.860Z,89.20
2019-05-03T02:52:36.472Z,89.10
2019-05-03T02:55:09.068Z,89.10
2019-05-03T02:57:39.094Z,89.40
2019-05-03T03:00:11.354Z,89.20
2019-05-03T03:02:41.477Z,89.50
2019-05-03T03:05:12.578Z,89.80
2019-05-03T03:07:45.964Z,90.10
2019-05-03T03:10:16.641Z,90.10
2019-05-03T03:12:49.669Z,90.30
2019-05-03T03:15:19.577Z,90.10
2019-05-03T03:17:55.803Z,90.10
2019-05-03T03:20:25.417Z,90.20
2019-05-03T03:22:58.042Z,90.10
2019-05-03T03:25:32.851Z,90.40
2019-05-03T03:28:05.363Z,90.30
2019-05-03T03:31:08.332Z,90.30
2019-05-03T03:33:40.219Z,90.60
2019-05-03T03:36:37.609Z,90.70
2019-05-03T03:38:41.406Z,90.40
2019-05-03T03:41:12.587Z,90.40
2019-05-03T03:43:46.268Z,90.60
2019-05-03T03:46:16.498Z,90.80
2019-05-03T03:48:47.109Z,90.90
2019-05-03T03:51:20.165Z,90.60
2019-05-03T03:53:55.463Z,90.50
2019-05-03T03:56:27.865Z,90.40
2019-05-03T03:58:57.753Z,90.30
2019-05-03T04:01:28.124Z,90.20
2019-05-03T04:03:58.601Z,90.20
2019-05-03T04:06:40.679Z,90.30
2019-05-03T04:09:10.647Z,90.30
2019-05-03T04:11:41.790Z,90.30
2019-05-03T04:14:16.172Z,90.00
2019-05-03T04:16:56.300Z,89.80
2019-05-03T04:19:29.870Z,89.60
2019-05-03T04:22:01.803Z,90.00
2019-05-03T04:24:35.000Z,89.70
2019-05-03T04:27:18.729Z,89.40
2019-05-03T04:29:40.339Z,89.40
2019-05-03T04:32:10.614Z,89.40
2019-05-03T04:34:40.873Z,89.20
2019-05-03T04:37:10.890Z,89.50
2019-05-03T04:39:40.937Z,89.00
2019-05-03T04:42:11.746Z,89.20
2019-05-03T04:44:41.629Z,88.70
2019-05-03T04:47:11.558Z,88.60
2019-05-03T04:49:41.496Z,88.70
2019-05-03T04:52:11.363Z,88.80
2019-05-03T04:54:45.066Z,88.80
2019-05-03T04:57:17.605Z,88.20
2019-05-03T04:59:46.071Z,87.90
2019-05-03T05:02:16.164Z,88.40
2019-05-03T05:04:46.524Z,87.90
2019-05-03T05:07:17.595Z,88.20
2019-05-03T05:09:47.572Z,87.60
2019-05-03T05:12:17.444Z,87.30
2019-05-03T05:14:47.400Z,86.20
2019-05-03T05:17:19.066Z,85.70
2019-05-03T05:19:54.902Z,85.20
2019-05-03T05:22:26.557Z,85.40
2019-05-03T05:24:57.813Z,85.10
2019-05-03T05:27:34.499Z,84.90
2019-05-03T05:30:06.298Z,84.60
2019-05-03T05:32:36.345Z,84.60
2019-05-03T05:35:07.233Z,84.60
2019-05-03T05:37:37.206Z,84.10
2019-05-03T05:40:07.537Z,84.00
2019-05-03T05:42:37.561Z,84.00
2019-05-03T05:45:07.846Z,83.60
2019-05-03T05:47:45.418Z,83.90
2019-05-03T05:50:22.940Z,83.90
2019-05-03T05:52:55.094Z,84.20
2019-05-03T05:55:34.332Z,84.50
2019-05-03T05:58:08.508Z,85.60
2019-05-03T06:00:40.192Z,85.90
2019-05-03T06:03:11.224Z,86.20
2019-05-03T06:05:41.121Z,86.50
2019-05-03T06:08:12.686Z,87.00
2019-05-03T06:10:45.121Z,87.60
2019-05-03T06:13:34.452Z,87.60
2019-05-03T06:16:08.958Z,87.80
2019-05-03T06:18:54.274Z,88.10
2019-05-03T06:21:47.662Z,87.90
2019-05-03T06:24:30.051Z,87.20
2019-05-03T06:27:05.051Z,86.40
2019-05-03T06:29:37.389Z,85.50
2019-05-03T06:32:12.294Z,86.00
2019-05-03T06:34:45.385Z,86.10
2019-05-03T06:37:16.585Z,86.00
2019-05-03T06:39:46.640Z,86.20
2019-05-03T06:42:19.297Z,86.20
2019-05-03T06:44:48.189Z,86.40
2019-05-03T06:47:18.067Z,86.10
2019-05-03T06:49:48.555Z,85.90
2019-05-03T06:52:19.866Z,86.60
2019-05-03T06:54:50.592Z,87.60
2019-05-03T06:57:20.594Z,88.40
2019-05-03T06:59:54.897Z,88.80
2019-05-03T07:02:29.060Z,88.60
2019-05-03T07:05:00.594Z,89.10
2019-05-03T07:07:40.724Z,88.80
2019-05-03T07:10:18.323Z,89.30
2019-05-03T07:13:02.037Z,89.70
2019-05-03T07:15:31.906Z,84.70
2019-05-03T07:18:01.789Z,83.40
2019-05-03T07:20:35.301Z,81.20
2019-05-03T07:23:05.273Z,81.40
2019-05-03T07:25:35.128Z,79.80
2019-05-03T07:28:05.045Z,77.60
2019-05-03T07:30:36.934Z,79.40
2019-05-03T07:33:10.602Z,79.70
2019-05-03T07:35:40.459Z,80.50
2019-05-03T07:38:10.309Z,81.50
2019-05-03T07:40:40.196Z,81.70
2019-05-03T07:43:10.125Z,81.10
2019-05-03T07:45:40.165Z,80.40
2019-05-03T07:48:10.097Z,79.90
2019-05-03T07:50:39.939Z,80.10
2019-05-03T07:53:09.824Z,79.10
2019-05-03T07:55:50.392Z,78.70
2019-05-03T07:58:30.588Z,78.30
2019-05-03T08:01:08.735Z,77.90
2019-05-03T08:03:34.822Z,76.90
2019-05-03T08:06:05.166Z,76.80
2019-05-03T08:08:35.527Z,75.70
2019-05-03T08:11:05.608Z,76.80
2019-05-03T08:13:35.763Z,76.70
2019-05-03T08:16:06.067Z,76.30
2019-05-03T08:18:37.167Z,76.30
2019-05-03T08:21:07.123Z,76.50
2019-05-03T08:23:37.052Z,76.60
2019-05-03T08:26:06.985Z,75.00
2019-05-03T08:28:36.845Z,74.90
2019-05-03T08:31:26.679Z,73.90
2019-05-03T08:34:15.354Z,72.30
2019-05-03T08:36:58.657Z,72.40
2019-05-03T08:39:28.491Z,71.40
2019-05-03T08:42:04.659Z,68.90
2019-05-03T08:44:35.358Z,69.30
2019-05-03T08:47:05.460Z,68.10
2019-05-03T08:49:35.337Z,69.20
2019-05-03T08:52:05.629Z,69.40
2019-05-03T08:54:36.653Z,68.30
2019-05-03T08:57:06.597Z,65.70
2019-05-03T08:59:36.512Z,66.00
2019-05-03T09:02:14.118Z,65.40
2019-05-03T09:04:42.839Z,64.50
2019-05-03T09:07:10.693Z,62.60
2019-05-03T09:09:42.348Z,61.70
2019-05-03T09:12:12.187Z,61.90
2019-05-03T09:14:45.727Z,63.30
2019-05-03T09:17:15.284Z,63.20
2019-05-03T09:19:45.525Z,64.10
2019-05-03T09:22:15.571Z,63.10
2019-05-03T09:24:45.667Z,63.80
2019-05-03T09:27:15.630Z,63.60
2019-05-03T09:29:46.131Z,64.10
2019-05-03T09:32:16.402Z,64.10
2019-05-03T09:34:47.336Z,64.80
2019-05-03T09:37:17.170Z,64.10
2019-05-03T09:39:47.061Z,63.30
2019-05-03T09:42:16.925Z,61.10
2019-05-03T09:44:46.863Z,59.40
2019-05-03T09:47:16.699Z,59.10
2019-05-03T09:49:46.561Z,58.70
2019-05-03T09:52:16.534Z,58.80
2019-05-03T09:54:48.073Z,58.50
2019-05-03T09:57:18.010Z,58.10
2019-05-03T09:59:57.140Z,57.30
2019-05-03T10:02:19.585Z,55.50
2019-05-03T10:04:49.449Z,55.50
2019-05-03T10:07:19.409Z,53.00
2019-05-03T10:09:49.309Z,52.20
2019-05-03T10:12:25.456Z,52.50
2019-05-03T10:14:55.147Z,51.80
2019-05-03T10:17:35.792Z,52.60
2019-05-03T10:20:08.595Z,52.80
2019-05-03T10:22:38.547Z,51.90
2019-05-03T10:25:09.558Z,51.60
2019-05-03T10:27:45.865Z,50.40
2019-05-03T10:30:19.575Z,50.00
2019-05-03T10:32:51.138Z,49.30
2019-05-03T10:35:21.097Z,48.50
2019-05-03T10:37:50.998Z,48.00
2019-05-03T10:40:27.590Z,48.10
2019-05-03T10:42:57.496Z,47.30
2019-05-03T10:45:28.093Z,46.10
2019-05-03T10:47:58.335Z,45.10
2019-05-03T10:50:28.757Z,44.50
2019-05-03T10:53:09.141Z,45.60
2019-05-03T10:55:41.749Z,44.90
2019-05-03T10:58:13.261Z,43.90
2019-05-03T11:00:52.206Z,42.80
2019-05-03T11:03:17.586Z,41.50
2019-05-03T11:05:47.443Z,42.40
2019-05-03T11:08:17.470Z,42.30
2019-05-03T11:10:47.307Z,43.30
2019-05-03T11:13:17.335Z,43.70
2019-05-03T11:15:47.255Z,45.10
2019-05-03T11:18:17.489Z,46.60
2019-05-03T11:20:48.343Z,45.90
2019-05-03T11:23:18.191Z,45.30
2019-05-03T11:25:48.141Z,45.30
2019-05-03T11:28:25.601Z,45.00
2019-05-03T11:31:01.922Z,44.70
2019-05-03T11:33:32.385Z,42.90
2019-05-03T11:36:10.021Z,41.10
2019-05-03T11:38:41.582Z,40.80
2019-05-03T11:41:11.567Z,40.80
2019-05-03T11:43:41.481Z,38.90
2019-05-03T11:46:11.436Z,37.40
2019-05-03T11:48:41.275Z,33.60
2019-05-03T11:51:11.131Z,32.90
2019-05-03T11:53:41.067Z,31.20
2019-05-03T11:56:10.932Z,28.80
2019-05-03T11:58:40.942Z,28.10
2019-05-03T12:01:16.989Z,29.30
2019-05-03T12:03:45.915Z,31.70
2019-05-03T12:06:16.070Z,33.70
2019-05-03T12:08:46.148Z,35.70
2019-05-03T12:11:16.125Z,37.50
2019-05-03T12:13:46.044Z,38.40
2019-05-03T12:16:24.241Z,40.70
2019-05-03T12:18:53.537Z,41.80
2019-05-03T12:21:20.671Z,43.00
2019-05-03T12:23:51.148Z,43.90
2019-05-03T12:26:21.932Z,43.80
2019-05-03T12:28:52.522Z,44.70
2019-05-03T12:31:33.492Z,44.00
2019-05-03T12:33:55.060Z,44.20
2019-05-03T12:36:26.125Z,43.40
2019-05-03T12:38:56.052Z,41.50
2019-05-03T12:41:25.987Z,41.50
2019-05-03T12:43:55.934Z,42.00
2019-05-03T12:46:26.835Z,43.80
2019-05-03T12:48:56.776Z,42.70
2019-05-03T12:51:26.695Z,43.30
2019-05-03T12:53:56.559Z,44.10
2019-05-03T12:56:32.681Z,44.80
2019-05-03T12:59:05.977Z,46.00
2019-05-03T13:01:55.691Z,46.50
2019-05-03T13:04:29.457Z,46.80
2019-05-03T13:07:05.405Z,47.80
2019-05-03T13:09:35.810Z,48.60
2019-05-03T13:12:07.152Z,49.70
2019-05-03T13:14:37.136Z,50.00
2019-05-03T13:17:07.105Z,50.80
2019-05-03T13:19:37.043Z,50.60
2019-05-03T13:22:07.877Z,50.60
2019-05-03T13:24:37.739Z,50.60
2019-05-03T13:27:07.624Z,51.20
2019-05-03T13:29:37.570Z,51.00
2019-05-03T13:32:07.504Z,50.60
2019-05-03T13:34:37.486Z,50.50
2019-05-03T13:37:07.411Z,50.60
2019-05-03T13:39:37.360Z,50.40
2019-05-03T13:42:07.434Z,50.20
2019-05-03T13:44:37.409Z,50.50
2019-05-03T13:47:07.356Z,50.70
2019-05-03T13:49:37.319Z,50.60
2019-05-03T13:52:07.253Z,50.50
2019-05-03T13:54:37.184Z,49.80
2019-05-03T13:57:07.112Z,49.70
2019-05-03T13:59:37.156Z,49.70
2019-05-03T14:02:15.085Z,49.60
2019-05-03T14:04:49.340Z,50.00
2019-05-03T14:07:10.308Z,50.80
2019-05-03T14:09:40.548Z,51.20
2019-05-03T14:12:10.545Z,51.70
2019-05-03T14:14:55.347Z,52.40
2019-05-03T14:17:26.327Z,52.90
2019-05-03T14:19:58.005Z,53.50
2019-05-03T14:22:29.568Z,54.10
2019-05-03T14:24:59.451Z,54.50
2019-05-03T14:27:29.387Z,54.80
2019-05-03T14:29:59.354Z,55.70
2019-05-03T14:32:29.288Z,55.90
2019-05-03T14:34:59.315Z,55.40
2019-05-03T14:37:29.162Z,55.20
2019-05-03T14:39:59.047Z,55.60
2019-05-03T14:42:28.984Z,55.70
2019-05-03T14:45:00.089Z,55.80
2019-05-03T14:47:31.200Z,55.40
2019-05-03T14:50:01.043Z,55.30
2019-05-03T14:52:30.946Z,54.60
2019-05-03T14:55:02.458Z,54.20
2019-05-03T14:57:38.475Z,54.20
2019-05-03T15:00:19.813Z,53.50
2019-05-03T15:02:55.325Z,53.70
2019-05-03T15:05:25.989Z,53.30
2019-05-03T15:07:56.008Z,53.40
2019-05-03T15:10:26.171Z,53.30
2019-05-03T15:12:56.096Z,53.10
2019-05-03T15:15:28.725Z,53.20
2019-05-03T15:17:57.659Z,52.90
2019-05-03T15:20:27.542Z,53.00
2019-05-03T15:22:57.447Z,52.90
2019-05-03T15:25:27.315Z,53.00
2019-05-03T15:27:57.194Z,52.90
2019-05-03T15:30:27.154Z,52.90
2019-05-03T15:33:00.726Z,52.70
2019-05-03T15:35:28.658Z,52.60
2019-05-03T15:37:58.599Z,52.20
2019-05-03T15:40:28.521Z,52.40
2019-05-03T15:43:00.023Z,52.30
2019-05-03T15:45:40.448Z,52.50
2019-05-03T15:48:11.982Z,52.80
2019-05-03T15:50:41.885Z,52.80
2019-05-03T15:53:11.842Z,52.80
2019-05-03T15:55:42.740Z,53.70
2019-05-03T15:58:12.613Z,54.30
2019-05-03T16:00:44.417Z,55.40
2019-05-03T16:03:14.524Z,55.30
2019-05-03T16:05:44.801Z,55.80
2019-05-03T16:08:15.421Z,54.90
2019-05-03T16:10:45.733Z,54.90
2019-05-03T16:13:15.805Z,54.40
2019-05-03T16:15:45.744Z,54.40
2019-05-03T16:18:15.731Z,53.80
2019-05-03T16:20:45.631Z,53.40
2019-05-03T16:23:15.581Z,53.50
2019-05-03T16:25:45.478Z,54.40
2019-05-03T16:28:17.000Z,54.20
2019-05-03T16:30:49.652Z,54.40
2019-05-03T16:33:27.147Z,55.10
2019-05-03T16:35:51.212Z,54.40
2019-05-03T16:38:21.692Z,52.50
2019-05-03T16:40:51.519Z,53.00
2019-05-03T16:43:21.393Z,52.20
2019-05-03T16:45:51.246Z,52.50
2019-05-03T16:48:21.092Z,52.40
2019-05-03T16:50:50.956Z,52.30
2019-05-03T16:53:21.890Z,51.90
2019-05-03T16:55:51.824Z,54.50
2019-05-03T16:58:21.753Z,54.00
2019-05-03T17:00:51.594Z,52.90
2019-05-03T17:03:37.952Z,51.20
2019-05-03T17:06:05.653Z,51.30
2019-05-03T17:08:45.162Z,51.30
2019-05-03T17:11:16.548Z,51.40
2019-05-03T17:13:47.978Z,51.70
2019-05-03T17:16:18.097Z,51.90
2019-05-03T17:18:48.048Z,51.70
2019-05-03T17:21:17.922Z,51.70
2019-05-03T17:23:47.928Z,52.00
2019-05-03T17:26:17.901Z,52.90
2019-05-03T17:28:48.681Z,53.70
2019-05-03T17:31:18.532Z,54.10
2019-05-03T17:33:53.263Z,55.00
2019-05-03T17:36:20.013Z,55.70
2019-05-03T17:38:51.554Z,56.10
2019-05-03T17:41:29.106Z,56.60
2019-05-03T17:44:00.688Z,57.30
2019-05-03T17:46:30.620Z,57.90
2019-05-03T17:49:00.513Z,58.50
2019-05-03T17:51:48.819Z,58.70
2019-05-03T17:54:26.278Z,59.30
2019-05-03T17:56:58.801Z,59.90
2019-05-03T17:59:30.313Z,59.90
2019-05-03T18:02:10.996Z,60.40
2019-05-03T18:04:42.576Z,61.10
2019-05-03T18:07:14.947Z,61.10
2019-05-03T18:09:46.654Z,61.60
2019-05-03T18:12:16.527Z,61.70
2019-05-03T18:14:46.548Z,61.40
2019-05-03T18:17:16.642Z,61.80
2019-05-03T18:19:47.862Z,62.40
2019-05-03T18:22:17.980Z,61.90
2019-05-03T18:24:47.953Z,61.80
2019-05-03T18:27:17.893Z,61.90
2019-05-03T18:29:47.865Z,62.20
2019-05-03T18:32:17.893Z,62.60
2019-05-03T18:34:47.771Z,63.20
2019-05-03T18:37:17.644Z,63.50
2019-05-03T18:39:49.022Z,63.90
2019-05-03T18:42:30.758Z,63.90
2019-05-03T18:45:09.309Z,63.90
2019-05-03T18:47:39.405Z,64.00
2019-05-03T18:50:09.568Z,64.20
2019-05-03T18:52:40.540Z,64.30
2019-05-03T18:55:10.644Z,64.20
2019-05-03T18:57:40.551Z,64.30
2019-05-03T19:00:11.073Z,64.30
2019-05-03T19:02:44.400Z,64.50
2019-05-03T19:05:18.728Z,64.70
2019-05-03T19:08:00.116Z,65.00
2019-05-03T19:10:35.397Z,65.40
2019-05-03T19:13:07.075Z,65.50
2019-05-03T19:15:37.331Z,65.90
2019-05-03T19:18:12.340Z,66.00
2019-05-03T19:20:42.347Z,66.30
2019-05-03T19:23:12.344Z,66.60
2019-05-03T19:25:46.816Z,67.00
2019-05-03T19:28:14.093Z,67.80
2019-05-03T19:30:46.032Z,68.50
2019-05-03T19:33:16.017Z,68.10
2019-05-03T19:35:46.030Z,68.20
2019-05-03T19:38:16.274Z,68.50
2019-05-03T19:40:46.307Z,68.50
2019-05-03T19:43:16.295Z,68.80
2019-05-03T19:45:46.312Z,66.90
2019-05-03T19:48:16.960Z,66.80
2019-05-03T19:50:48.301Z,67.10
2019-05-03T19:53:30.057Z,67.20
2019-05-03T19:56:01.291Z,67.80
2019-05-03T19:58:31.520Z,68.50
2019-05-03T20:01:05.638Z,69.10
2019-05-03T20:03:45.502Z,69.20
2019-05-03T20:06:19.191Z,69.50
2019-05-03T20:08:55.397Z,68.90
2019-05-03T20:11:29.551Z,69.10
2019-05-03T20:14:00.725Z,69.40
2019-05-03T20:16:31.804Z,69.60
2019-05-03T20:19:17.745Z,69.60
2019-05-03T20:21:39.185Z,69.20
2019-05-03T20:24:14.873Z,69.10
2019-05-03T20:26:46.694Z,68.70
2019-05-03T20:29:19.431Z,68.60
2019-05-03T20:31:51.640Z,68.70
2019-05-03T20:34:24.837Z,68.10
2019-05-03T20:36:55.430Z,68.20
2019-05-03T20:39:27.688Z,68.10
2019-05-03T20:41:59.817Z,68.10
2019-05-03T20:44:41.911Z,67.80
2019-05-03T20:47:25.556Z,67.30
2019-05-03T20:50:16.750Z,67.30
2019-05-03T20:52:49.222Z,67.40
2019-05-03T20:55:20.708Z,67.40
2019-05-03T20:57:54.915Z,67.90
2019-05-03T21:00:32.293Z,67.80
2019-05-03T21:03:06.244Z,68.20
2019-05-03T21:05:40.236Z,68.70
2019-05-03T21:08:14.699Z,68.90
2019-05-03T21:10:45.133Z,69.10
2019-05-03T21:13:17.662Z,69.60
2019-05-03T21:16:06.596Z,69.70
2019-05-03T21:18:39.408Z,69.90
2019-05-03T21:21:12.310Z,70.20
2019-05-03T21:23:44.970Z,70.50
2019-05-03T21:26:16.656Z,70.90
2019-05-03T21:28:46.843Z,71.20
2019-05-03T21:31:16.746Z,72.60
2019-05-03T21:33:46.733Z,72.00
2019-05-03T21:36:16.703Z,72.20
2019-05-03T21:38:46.748Z,72.40
2019-05-03T21:41:16.655Z,72.50
2019-05-03T21:43:46.587Z,72.50
2019-05-03T21:46:27.368Z,72.50
2019-05-03T21:48:58.945Z,73.00
2019-05-03T21:51:29.041Z,73.40
2019-05-03T21:53:59.000Z,73.50
2019-05-03T21:56:28.835Z,73.60
2019-05-03T21:58:58.728Z,73.60
2019-05-03T22:01:28.878Z,73.90
2019-05-03T22:03:58.804Z,73.80
2019-05-03T22:06:28.696Z,73.90
2019-05-03T22:08:58.608Z,73.90
2019-05-03T22:11:29.626Z,74.20
2019-05-03T22:14:01.731Z,74.30
2019-05-03T22:16:45.730Z,74.00
2019-05-03T22:19:17.963Z,74.00
2019-05-03T22:22:05.445Z,74.10
2019-05-03T22:24:42.106Z,74.40
2019-05-03T22:27:15.271Z,74.30
2019-05-03T22:29:45.127Z,74.40
2019-05-03T22:32:15.554Z,74.20
2019-05-03T22:34:45.723Z,74.20
2019-05-03T22:37:16.663Z,74.20
2019-05-03T22:39:47.928Z,74.20
2019-05-03T22:42:18.007Z,74.30
2019-05-03T22:44:47.871Z,73.90
2019-05-03T22:47:17.786Z,73.90
2019-05-03T22:49:47.660Z,73.70
2019-05-03T22:52:17.562Z,73.80
2019-05-03T22:54:47.437Z,73.70
2019-05-03T22:57:17.444Z,73.70
2019-05-03T22:59:48.363Z,73.80
2019-05-03T23:02:18.353Z,74.00
2019-05-03T23:04:49.261Z,74.20
2019-05-03T23:07:19.170Z,74.40
2019-05-03T23:09:49.146Z,74.50
2019-05-03T23:12:19.054Z,74.30
2019-05-03T23:14:48.980Z,74.20
2019-05-03T23:17:18.811Z,74.30
2019-05-03T23:19:50.400Z,74.40
2019-05-03T23:22:21.893Z,74.50
2019-05-03T23:24:51.832Z,74.70
2019-05-03T23:27:21.749Z,74.50
2019-05-03T23:29:51.628Z,74.80
2019-05-03T23:32:21.541Z,74.80
2019-05-03T23:34:51.519Z,75.10
2019-05-03T23:37:21.465Z,75.20
2019-05-03T23:39:51.344Z,75.10
2019-05-03T23:42:21.262Z,75.10
2019-05-03T23:44:51.104Z,75.20
2019-05-03T23:47:28.224Z,75.20
2019-05-03T23:49:58.151Z,75.40
2019-05-03T23:52:29.627Z,75.40
2019-05-03T23:55:05.787Z,75.70
2019-05-03T23:57:35.805Z,75.70
